sensor_id;sensor_type;location;lat;lon;timestamp;pressure;altitude;pressure_sealevel;temperature;humidity
22647;BME280;11490;42.726;23.268;2024-01-15T00:00:09;94665.31;;;-4.44;100.00
22647;BME280;11490;42.726;23.268;2024-01-15T00:02:35;94672.00;;;-4.09;100.00
22647;BME280;11490;42.726;23.268;2024-01-15T00:05:00;94681.94;;;-4.13;100.00
22647;BME280;11490;42.726;23.268;2024-01-15T00:07:25;94673.66;;;-3.76;100.00
22647;BME280;11490;42.726;23.268;2024-01-15T00:09:51;94666.97;;;-4.19;100.00
22647;BME280;11490;42.726;23.268;2024-01-15T00:12:16;94656.97;;;-4.56;100.00
22647;BME280;11490;42.726;23.268;2024-01-15T00:14:41;94669.38;;;-4.50;100.00
22647;BME280;11490;42.726;23.268;2024-01-15T00:17:07;94656.41;;;-4.34;100.00
22647;BME280;11490;42.726;23.268;2024-01-15T00:19:32;94667.16;;;-3.96;100.00
22647;BME280;11490;42.726;23.268;2024-01-15T00:21:58;94659.00;;;-4.01;100.00
22647;BME280;11490;42.726;23.268;2024-01-15T00:24:24;94678.50;;;-4.38;100.00
22647;BME280;11490;42.726;23.268;2024-01-15T00:26:50;94608.53;;;-4.49;100.00
22647;BME280;11490;42.726;23.268;2024-01-15T00:29:15;94674.94;;;-4.20;100.00
22647;BME280;11490;42.726;23.268;2024-01-15T00:31:40;94673.66;;;-4.08;100.00
22647;BME280;11490;42.726;23.268;2024-01-15T00:34:06;94662.19;;;-4.48;100.00
22647;BME280;11490;42.726;23.268;2024-01-15T00:36:31;94663.81;;;-4.55;100.00
22647;BME280;11490;42.726;23.268;2024-01-15T00:38:56;94663.56;;;-4.19;100.00
22647;BME280;11490;42.726;23.268;2024-01-15T00:41:22;94664.22;;;-4.01;100.00
22647;BME280;11490;42.726;23.268;2024-01-15T00:43:48;94664.84;;;-4.15;100.00
22647;BME280;11490;42.726;23.268;2024-01-15T00:46:16;94664.84;;;-4.23;100.00
22647;BME280;11490;42.726;23.268;2024-01-15T00:48:41;94658.50;;;-4.37;100.00
22647;BME280;11490;42.726;23.268;2024-01-15T00:51:07;94671.19;;;-4.42;100.00
22647;BME280;11490;42.726;23.268;2024-01-15T00:53:32;94659.91;;;-4.59;100.00
22647;BME280;11490;42.726;23.268;2024-01-15T00:55:58;94664.66;;;-4.46;100.00
22647;BME280;11490;42.726;23.268;2024-01-15T00:58:23;94666.16;;;-4.36;100.00
22647;BME280;11490;42.726;23.268;2024-01-15T01:00:49;94659.97;;;-4.27;100.00
22647;BME280;11490;42.726;23.268;2024-01-15T01:03:15;94665.19;;;-4.10;100.00
22647;BME280;11490;42.726;23.268;2024-01-15T01:05:41;94660.22;;;-4.62;100.00
22647;BME280;11490;42.726;23.268;2024-01-15T01:08:06;94666.00;;;-4.84;100.00
22647;BME280;11490;42.726;23.268;2024-01-15T01:10:31;94650.34;;;-4.50;100.00
22647;BME280;11490;42.726;23.268;2024-01-15T01:12:57;94656.66;;;-4.53;100.00
22647;BME280;11490;42.726;23.268;2024-01-15T01:15:22;94662.22;;;-4.32;100.00
22647;BME280;11490;42.726;23.268;2024-01-15T01:17:48;94646.63;;;-4.15;100.00
22647;BME280;11490;42.726;23.268;2024-01-15T01:20:13;94658.19;;;-4.92;100.00
22647;BME280;11490;42.726;23.268;2024-01-15T01:22:40;94651.50;;;-4.95;100.00
22647;BME280;11490;42.726;23.268;2024-01-15T01:25:06;94648.13;;;-4.79;100.00
22647;BME280;11490;42.726;23.268;2024-01-15T01:27:31;94626.91;;;-4.58;100.00
22647;BME280;11490;42.726;23.268;2024-01-15T01:29:57;94652.09;;;-4.67;100.00
22647;BME280;11490;42.726;23.268;2024-01-15T01:32:22;94637.13;;;-4.73;100.00
22647;BME280;11490;42.726;23.268;2024-01-15T01:34:47;94644.66;;;-4.30;100.00
22647;BME280;11490;42.726;23.268;2024-01-15T01:37:14;94627.41;;;-4.39;100.00
22647;BME280;11490;42.726;23.268;2024-01-15T01:39:40;94645.91;;;-4.74;100.00
22647;BME280;11490;42.726;23.268;2024-01-15T01:42:05;94636.31;;;-4.66;100.00
22647;BME280;11490;42.726;23.268;2024-01-15T01:44:31;94628.44;;;-4.98;100.00
22647;BME280;11490;42.726;23.268;2024-01-15T01:46:58;94621.47;;;-4.89;100.00
22647;BME280;11490;42.726;23.268;2024-01-15T01:49:24;94629.44;;;-4.83;100.00
22647;BME280;11490;42.726;23.268;2024-01-15T01:51:50;94625.75;;;-4.64;100.00
22647;BME280;11490;42.726;23.268;2024-01-15T01:54:16;94622.88;;;-4.37;100.00
22647;BME280;11490;42.726;23.268;2024-01-15T01:56:43;94622.50;;;-4.66;100.00
22647;BME280;11490;42.726;23.268;2024-01-15T01:59:11;94616.34;;;-4.41;100.00
22647;BME280;11490;42.726;23.268;2024-01-15T02:01:36;94605.00;;;-5.06;100.00
22647;BME280;11490;42.726;23.268;2024-01-15T02:04:03;94600.03;;;-4.83;100.00
22647;BME280;11490;42.726;23.268;2024-01-15T02:06:29;94623.03;;;-5.05;100.00
22647;BME280;11490;42.726;23.268;2024-01-15T02:08:55;94628.25;;;-5.05;100.00
22647;BME280;11490;42.726;23.268;2024-01-15T02:11:21;94622.41;;;-4.98;100.00
22647;BME280;11490;42.726;23.268;2024-01-15T02:13:46;94604.28;;;-4.74;100.00
22647;BME280;11490;42.726;23.268;2024-01-15T02:16:12;94599.25;;;-4.68;100.00
22647;BME280;11490;42.726;23.268;2024-01-15T02:18:45;94600.72;;;-4.65;100.00
22647;BME280;11490;42.726;23.268;2024-01-15T02:21:11;94586.13;;;-4.50;100.00
22647;BME280;11490;42.726;23.268;2024-01-15T02:23:37;94572.13;;;-4.65;100.00
22647;BME280;11490;42.726;23.268;2024-01-15T02:26:03;94554.53;;;-4.71;100.00
22647;BME280;11490;42.726;23.268;2024-01-15T02:28:29;94560.69;;;-4.88;100.00
22647;BME280;11490;42.726;23.268;2024-01-15T02:30:55;94558.69;;;-5.03;100.00
22647;BME280;11490;42.726;23.268;2024-01-15T02:33:20;94550.28;;;-4.72;100.00
22647;BME280;11490;42.726;23.268;2024-01-15T02:35:45;94559.91;;;-4.56;100.00
22647;BME280;11490;42.726;23.268;2024-01-15T02:38:11;94566.59;;;-4.30;100.00
22647;BME280;11490;42.726;23.268;2024-01-15T02:40:38;94564.47;;;-4.50;100.00
22647;BME280;11490;42.726;23.268;2024-01-15T02:43:03;94567.25;;;-4.28;100.00
22647;BME280;11490;42.726;23.268;2024-01-15T02:45:29;94571.47;;;-4.43;100.00
22647;BME280;11490;42.726;23.268;2024-01-15T02:47:54;94565.13;;;-4.24;100.00
22647;BME280;11490;42.726;23.268;2024-01-15T02:50:20;94573.75;;;-4.32;100.00
22647;BME280;11490;42.726;23.268;2024-01-15T02:52:46;94562.34;;;-4.14;100.00
22647;BME280;11490;42.726;23.268;2024-01-15T02:55:11;94560.72;;;-4.40;100.00
22647;BME280;11490;42.726;23.268;2024-01-15T02:57:37;94563.00;;;-4.20;100.00
22647;BME280;11490;42.726;23.268;2024-01-15T03:00:02;94566.75;;;-4.47;100.00
22647;BME280;11490;42.726;23.268;2024-01-15T03:02:29;94546.75;;;-4.55;100.00
22647;BME280;11490;42.726;23.268;2024-01-15T03:04:57;94555.16;;;-4.85;100.00
22647;BME280;11490;42.726;23.268;2024-01-15T03:07:22;94544.44;;;-4.82;100.00
22647;BME280;11490;42.726;23.268;2024-01-15T03:09:48;94550.47;;;-4.74;100.00
22647;BME280;11490;42.726;23.268;2024-01-15T03:12:13;94550.66;;;-4.43;100.00
22647;BME280;11490;42.726;23.268;2024-01-15T03:14:38;94562.03;;;-4.28;100.00
22647;BME280;11490;42.726;23.268;2024-01-15T03:17:04;94541.69;;;-4.16;100.00
22647;BME280;11490;42.726;23.268;2024-01-15T03:19:29;94551.47;;;-4.34;100.00
22647;BME280;11490;42.726;23.268;2024-01-15T03:21:56;94537.94;;;-4.13;100.00
22647;BME280;11490;42.726;23.268;2024-01-15T03:24:21;94544.94;;;-4.06;100.00
22647;BME280;11490;42.726;23.268;2024-01-15T03:26:47;94530.13;;;-3.97;100.00
22647;BME280;11490;42.726;23.268;2024-01-15T03:29:12;94546.34;;;-3.79;100.00
22647;BME280;11490;42.726;23.268;2024-01-15T03:31:38;94525.41;;;-4.10;100.00
22647;BME280;11490;42.726;23.268;2024-01-15T03:34:03;94535.78;;;-3.94;100.00
22647;BME280;11490;42.726;23.268;2024-01-15T03:36:29;94543.28;;;-3.99;100.00
22647;BME280;11490;42.726;23.268;2024-01-15T03:38:54;94544.78;;;-4.37;100.00
22647;BME280;11490;42.726;23.268;2024-01-15T03:41:20;94544.78;;;-4.20;100.00
22647;BME280;11490;42.726;23.268;2024-01-15T03:43:45;94526.88;;;-4.15;100.00
22647;BME280;11490;42.726;23.268;2024-01-15T03:46:10;94532.38;;;-4.02;100.00
22647;BME280;11490;42.726;23.268;2024-01-15T03:48:36;94535.31;;;-3.89;100.00
22647;BME280;11490;42.726;23.268;2024-01-15T03:51:02;94545.66;;;-3.65;100.00
22647;BME280;11490;42.726;23.268;2024-01-15T03:53:27;94521.56;;;-3.67;100.00
22647;BME280;11490;42.726;23.268;2024-01-15T03:55:54;94523.25;;;-3.82;100.00
22647;BME280;11490;42.726;23.268;2024-01-15T03:58:19;94536.72;;;-3.70;100.00
22647;BME280;11490;42.726;23.268;2024-01-15T04:00:45;94531.28;;;-3.53;100.00
22647;BME280;11490;42.726;23.268;2024-01-15T04:03:10;94526.69;;;-3.42;100.00
22647;BME280;11490;42.726;23.268;2024-01-15T04:05:35;94527.31;;;-3.40;100.00
22647;BME280;11490;42.726;23.268;2024-01-15T04:08:01;94503.63;;;-3.62;100.00
22647;BME280;11490;42.726;23.268;2024-01-15T04:10:26;94493.03;;;-4.07;100.00
22647;BME280;11490;42.726;23.268;2024-01-15T04:12:52;94510.91;;;-3.96;100.00
22647;BME280;11490;42.726;23.268;2024-01-15T04:15:17;94522.75;;;-3.85;100.00
22647;BME280;11490;42.726;23.268;2024-01-15T04:17:42;94524.66;;;-3.71;100.00
22647;BME280;11490;42.726;23.268;2024-01-15T04:20:08;94493.78;;;-3.91;100.00
22647;BME280;11490;42.726;23.268;2024-01-15T04:22:35;94508.56;;;-3.75;100.00
22647;BME280;11490;42.726;23.268;2024-01-15T04:25:01;94498.78;;;-3.65;100.00
22647;BME280;11490;42.726;23.268;2024-01-15T04:27:26;94525.47;;;-3.71;100.00
22647;BME280;11490;42.726;23.268;2024-01-15T04:29:52;94504.31;;;-3.68;100.00
22647;BME280;11490;42.726;23.268;2024-01-15T04:32:18;94499.84;;;-4.06;100.00
22647;BME280;11490;42.726;23.268;2024-01-15T04:34:43;94508.06;;;-3.78;100.00
22647;BME280;11490;42.726;23.268;2024-01-15T04:37:09;94522.63;;;-4.00;100.00
22647;BME280;11490;42.726;23.268;2024-01-15T04:39:34;94517.16;;;-4.38;100.00
22647;BME280;11490;42.726;23.268;2024-01-15T04:42:00;94503.94;;;-4.12;100.00
22647;BME280;11490;42.726;23.268;2024-01-15T04:44:25;94516.75;;;-3.94;100.00
22647;BME280;11490;42.726;23.268;2024-01-15T04:46:50;94518.25;;;-4.16;100.00
22647;BME280;11490;42.726;23.268;2024-01-15T04:49:16;94494.94;;;-3.93;100.00
22647;BME280;11490;42.726;23.268;2024-01-15T04:51:41;94488.81;;;-4.24;100.00
22647;BME280;11490;42.726;23.268;2024-01-15T04:54:07;94494.94;;;-3.93;100.00
22647;BME280;11490;42.726;23.268;2024-01-15T04:56:32;94483.50;;;-3.84;100.00
22647;BME280;11490;42.726;23.268;2024-01-15T04:58:57;94488.34;;;-3.65;100.00
22647;BME280;11490;42.726;23.268;2024-01-15T05:01:23;94489.91;;;-3.56;100.00
22647;BME280;11490;42.726;23.268;2024-01-15T05:03:48;94475.31;;;-3.65;100.00
22647;BME280;11490;42.726;23.268;2024-01-15T05:06:14;94470.16;;;-3.73;100.00
22647;BME280;11490;42.726;23.268;2024-01-15T05:08:40;94490.09;;;-3.57;100.00
22647;BME280;11490;42.726;23.268;2024-01-15T05:11:05;94496.25;;;-3.97;100.00
22647;BME280;11490;42.726;23.268;2024-01-15T05:13:31;94483.19;;;-3.81;100.00
22647;BME280;11490;42.726;23.268;2024-01-15T05:15:56;94494.91;;;-3.85;100.00
22647;BME280;11490;42.726;23.268;2024-01-15T05:18:21;94496.44;;;-4.15;100.00
22647;BME280;11490;42.726;23.268;2024-01-15T05:20:47;94466.63;;;-3.96;100.00
22647;BME280;11490;42.726;23.268;2024-01-15T05:23:12;94493.13;;;-3.84;100.00
22647;BME280;11490;42.726;23.268;2024-01-15T05:25:38;94490.41;;;-3.99;100.00
22647;BME280;11490;42.726;23.268;2024-01-15T05:28:04;94483.63;;;-4.49;100.00
22647;BME280;11490;42.726;23.268;2024-01-15T05:30:29;94474.53;;;-4.53;100.00
22647;BME280;11490;42.726;23.268;2024-01-15T05:32:55;94471.63;;;-4.50;100.00
22647;BME280;11490;42.726;23.268;2024-01-15T05:35:20;94472.91;;;-4.46;100.00
22647;BME280;11490;42.726;23.268;2024-01-15T05:37:45;94479.56;;;-4.19;100.00
22647;BME280;11490;42.726;23.268;2024-01-15T05:40:12;94460.88;;;-4.63;100.00
22647;BME280;11490;42.726;23.268;2024-01-15T05:42:38;94459.88;;;-4.38;100.00
22647;BME280;11490;42.726;23.268;2024-01-15T05:45:04;94460.16;;;-4.16;100.00
22647;BME280;11490;42.726;23.268;2024-01-15T05:47:30;94448.47;;;-4.12;100.00
22647;BME280;11490;42.726;23.268;2024-01-15T05:49:56;94449.16;;;-4.35;100.00
22647;BME280;11490;42.726;23.268;2024-01-15T05:52:22;94439.66;;;-4.03;100.00
22647;BME280;11490;42.726;23.268;2024-01-15T05:54:48;94438.03;;;-4.12;100.00
22647;BME280;11490;42.726;23.268;2024-01-15T05:57:13;94450.16;;;-4.44;100.00
22647;BME280;11490;42.726;23.268;2024-01-15T05:59:38;94469.63;;;-4.32;100.00
22647;BME280;11490;42.726;23.268;2024-01-15T06:02:04;94473.28;;;-3.94;100.00
22647;BME280;11490;42.726;23.268;2024-01-15T06:04:29;94457.88;;;-4.03;100.00
22647;BME280;11490;42.726;23.268;2024-01-15T06:06:55;94472.16;;;-3.91;100.00
22647;BME280;11490;42.726;23.268;2024-01-15T06:09:20;94450.38;;;-4.06;100.00
22647;BME280;11490;42.726;23.268;2024-01-15T06:11:46;94480.56;;;-3.73;100.00
22647;BME280;11490;42.726;23.268;2024-01-15T06:14:11;94446.00;;;-3.67;100.00
22647;BME280;11490;42.726;23.268;2024-01-15T06:16:36;94453.91;;;-3.91;100.00
22647;BME280;11490;42.726;23.268;2024-01-15T06:19:02;94457.91;;;-4.11;100.00
22647;BME280;11490;42.726;23.268;2024-01-15T06:21:28;94443.16;;;-3.80;100.00
22647;BME280;11490;42.726;23.268;2024-01-15T06:23:53;94438.97;;;-3.97;100.00
22647;BME280;11490;42.726;23.268;2024-01-15T06:26:19;94431.59;;;-3.85;100.00
22647;BME280;11490;42.726;23.268;2024-01-15T06:28:44;94456.19;;;-3.49;100.00
22647;BME280;11490;42.726;23.268;2024-01-15T06:31:09;94461.09;;;-3.23;100.00
22647;BME280;11490;42.726;23.268;2024-01-15T06:33:35;94460.06;;;-3.14;100.00
22647;BME280;11490;42.726;23.268;2024-01-15T06:36:01;94465.38;;;-3.30;100.00
22647;BME280;11490;42.726;23.268;2024-01-15T06:38:27;94459.38;;;-3.08;100.00
22647;BME280;11490;42.726;23.268;2024-01-15T06:40:52;94464.94;;;-3.11;100.00
22647;BME280;11490;42.726;23.268;2024-01-15T06:43:18;94448.22;;;-3.25;100.00
22647;BME280;11490;42.726;23.268;2024-01-15T06:45:44;94454.34;;;-2.87;100.00
22647;BME280;11490;42.726;23.268;2024-01-15T06:48:09;94451.78;;;-2.72;100.00
22647;BME280;11490;42.726;23.268;2024-01-15T06:50:35;94447.31;;;-2.63;100.00
22647;BME280;11490;42.726;23.268;2024-01-15T06:53:00;94460.22;;;-2.47;100.00
22647;BME280;11490;42.726;23.268;2024-01-15T06:55:26;94461.63;;;-2.22;100.00
22647;BME280;11490;42.726;23.268;2024-01-15T06:57:52;94460.28;;;-2.03;100.00
22647;BME280;11490;42.726;23.268;2024-01-15T07:00:18;94483.06;;;-2.12;100.00
22647;BME280;11490;42.726;23.268;2024-01-15T07:02:45;94479.03;;;-2.00;100.00
22647;BME280;11490;42.726;23.268;2024-01-15T07:05:10;94470.94;;;-1.90;100.00
22647;BME280;11490;42.726;23.268;2024-01-15T07:07:36;94460.56;;;-1.83;100.00
22647;BME280;11490;42.726;23.268;2024-01-15T07:10:02;94467.06;;;-1.79;100.00
22647;BME280;11490;42.726;23.268;2024-01-15T07:12:29;94457.03;;;-2.05;100.00
22647;BME280;11490;42.726;23.268;2024-01-15T07:14:55;94459.66;;;-1.90;100.00
22647;BME280;11490;42.726;23.268;2024-01-15T07:17:21;94465.59;;;-1.67;100.00
22647;BME280;11490;42.726;23.268;2024-01-15T07:19:46;94465.44;;;-1.80;100.00
22647;BME280;11490;42.726;23.268;2024-01-15T07:22:12;94469.13;;;-2.04;100.00
22647;BME280;11490;42.726;23.268;2024-01-15T07:24:37;94465.44;;;-1.80;100.00
22647;BME280;11490;42.726;23.268;2024-01-15T07:27:03;94450.75;;;-1.81;100.00
22647;BME280;11490;42.726;23.268;2024-01-15T07:29:30;94453.91;;;-1.71;100.00
22647;BME280;11490;42.726;23.268;2024-01-15T07:31:58;94454.81;;;-1.64;100.00
22647;BME280;11490;42.726;23.268;2024-01-15T07:34:23;94446.84;;;-1.56;100.00
22647;BME280;11490;42.726;23.268;2024-01-15T07:36:49;94439.72;;;-1.62;100.00
22647;BME280;11490;42.726;23.268;2024-01-15T07:39:14;94448.00;;;-1.44;100.00
22647;BME280;11490;42.726;23.268;2024-01-15T07:41:40;94453.31;;;-1.37;100.00
22647;BME280;11490;42.726;23.268;2024-01-15T07:44:05;94465.75;;;-1.25;100.00
22647;BME280;11490;42.726;23.268;2024-01-15T07:46:34;94441.81;;;-1.72;100.00
22647;BME280;11490;42.726;23.268;2024-01-15T07:48:59;94458.59;;;-1.81;100.00
22647;BME280;11490;42.726;23.268;2024-01-15T07:51:25;94441.81;;;-1.72;100.00
22647;BME280;11490;42.726;23.268;2024-01-15T07:53:54;94459.13;;;-1.71;100.00
22647;BME280;11490;42.726;23.268;2024-01-15T07:56:23;94444.63;;;-1.88;100.00
22647;BME280;11490;42.726;23.268;2024-01-15T07:58:48;94406.34;;;-2.11;100.00
22647;BME280;11490;42.726;23.268;2024-01-15T08:01:14;94417.84;;;-1.90;100.00
22647;BME280;11490;42.726;23.268;2024-01-15T08:03:39;94444.88;;;-1.83;100.00
22647;BME280;11490;42.726;23.268;2024-01-15T08:06:05;94448.38;;;-1.62;100.00
22647;BME280;11490;42.726;23.268;2024-01-15T08:08:31;94443.41;;;-1.42;100.00
22647;BME280;11490;42.726;23.268;2024-01-15T08:10:56;94465.38;;;-1.22;100.00
22647;BME280;11490;42.726;23.268;2024-01-15T08:13:22;94448.03;;;-1.23;100.00
22647;BME280;11490;42.726;23.268;2024-01-15T08:15:47;94458.28;;;-1.06;100.00
22647;BME280;11490;42.726;23.268;2024-01-15T08:18:12;94447.22;;;-0.87;100.00
22647;BME280;11490;42.726;23.268;2024-01-15T08:20:39;94463.13;;;-0.89;99.68
22647;BME280;11490;42.726;23.268;2024-01-15T08:23:05;94460.94;;;-0.64;99.66
22647;BME280;11490;42.726;23.268;2024-01-15T08:25:30;94459.09;;;-0.70;97.97
22647;BME280;11490;42.726;23.268;2024-01-15T08:27:56;94437.66;;;-0.52;98.17
22647;BME280;11490;42.726;23.268;2024-01-15T08:30:23;94413.31;;;-0.74;98.54
22647;BME280;11490;42.726;23.268;2024-01-15T08:32:55;94422.75;;;-0.52;99.23
22647;BME280;11490;42.726;23.268;2024-01-15T08:35:21;94454.56;;;-0.33;99.26
22647;BME280;11490;42.726;23.268;2024-01-15T08:37:50;94448.28;;;0.58;97.24
22647;BME280;11490;42.726;23.268;2024-01-15T08:40:16;94440.84;;;1.42;93.31
22647;BME280;11490;42.726;23.268;2024-01-15T08:42:42;94452.41;;;1.54;90.26
22647;BME280;11490;42.726;23.268;2024-01-15T08:45:08;94440.66;;;1.37;89.54
22647;BME280;11490;42.726;23.268;2024-01-15T08:47:33;94458.03;;;1.38;89.78
22647;BME280;11490;42.726;23.268;2024-01-15T08:49:59;94452.94;;;1.23;90.87
22647;BME280;11490;42.726;23.268;2024-01-15T08:52:25;94436.19;;;0.70;91.73
22647;BME280;11490;42.726;23.268;2024-01-15T08:54:51;94421.69;;;0.74;92.96
22647;BME280;11490;42.726;23.268;2024-01-15T08:57:17;94405.69;;;0.56;93.55
22647;BME280;11490;42.726;23.268;2024-01-15T08:59:45;94409.78;;;0.71;94.51
22647;BME280;11490;42.726;23.268;2024-01-15T09:02:11;94378.41;;;0.50;93.34
22647;BME280;11490;42.726;23.268;2024-01-15T09:04:36;94386.81;;;0.87;92.89
22647;BME280;11490;42.726;23.268;2024-01-15T09:07:01;94389.06;;;0.96;93.21
22647;BME280;11490;42.726;23.268;2024-01-15T09:09:27;94382.16;;;0.82;94.34
22647;BME280;11490;42.726;23.268;2024-01-15T09:11:52;94368.88;;;1.03;93.10
22647;BME280;11490;42.726;23.268;2024-01-15T09:14:18;94382.19;;;1.08;93.57
22647;BME280;11490;42.726;23.268;2024-01-15T09:16:45;94356.13;;;1.86;92.14
22647;BME280;11490;42.726;23.268;2024-01-15T09:19:10;94370.84;;;3.09;89.43
22647;BME280;11490;42.726;23.268;2024-01-15T09:21:38;94362.06;;;4.51;81.96
22647;BME280;11490;42.726;23.268;2024-01-15T09:24:04;94357.63;;;6.06;75.99
22647;BME280;11490;42.726;23.268;2024-01-15T09:26:29;94351.22;;;6.65;70.83
22647;BME280;11490;42.726;23.268;2024-01-15T09:28:54;94321.06;;;7.40;67.51
22647;BME280;11490;42.726;23.268;2024-01-15T09:31:20;94348.50;;;7.79;66.33
22647;BME280;11490;42.726;23.268;2024-01-15T09:33:46;94336.91;;;8.01;63.47
22647;BME280;11490;42.726;23.268;2024-01-15T09:36:11;94313.81;;;8.35;62.72
22647;BME280;11490;42.726;23.268;2024-01-15T09:38:37;94345.13;;;8.55;62.32
22647;BME280;11490;42.726;23.268;2024-01-15T09:41:03;94331.56;;;8.73;60.80
22647;BME280;11490;42.726;23.268;2024-01-15T09:43:28;94315.53;;;8.30;61.11
22647;BME280;11490;42.726;23.268;2024-01-15T09:45:54;94308.34;;;8.08;62.02
22647;BME280;11490;42.726;23.268;2024-01-15T09:48:20;94272.63;;;8.38;61.50
22647;BME280;11490;42.726;23.268;2024-01-15T09:50:46;94287.53;;;9.09;59.31
22647;BME280;11490;42.726;23.268;2024-01-15T09:53:11;94292.97;;;8.49;60.29
22647;BME280;11490;42.726;23.268;2024-01-15T09:55:41;94265.66;;;8.32;58.07
22647;BME280;11490;42.726;23.268;2024-01-15T09:58:06;94258.09;;;7.68;61.97
22647;BME280;11490;42.726;23.268;2024-01-15T10:00:33;94297.09;;;6.61;68.59
22647;BME280;11490;42.726;23.268;2024-01-15T10:03:02;94288.47;;;6.82;68.23
22647;BME280;11490;42.726;23.268;2024-01-15T10:05:28;94277.66;;;6.84;67.76
22647;BME280;11490;42.726;23.268;2024-01-15T10:07:56;94288.69;;;5.89;68.24
22647;BME280;11490;42.726;23.268;2024-01-15T10:10:22;94259.59;;;6.81;67.99
22647;BME280;11490;42.726;23.268;2024-01-15T10:12:50;94246.78;;;7.40;64.62
22647;BME280;11490;42.726;23.268;2024-01-15T10:15:15;94259.97;;;7.34;65.27
22647;BME280;11490;42.726;23.268;2024-01-15T10:17:42;94253.69;;;7.07;65.84
22647;BME280;11490;42.726;23.268;2024-01-15T10:20:11;94261.72;;;7.12;66.94
22647;BME280;11490;42.726;23.268;2024-01-15T10:22:41;94242.84;;;6.64;64.91
22647;BME280;11490;42.726;23.268;2024-01-15T10:25:12;94247.63;;;6.67;65.67
22647;BME280;11490;42.726;23.268;2024-01-15T10:27:38;94238.19;;;5.91;66.50
22647;BME280;11490;42.726;23.268;2024-01-15T10:30:03;94228.97;;;5.35;69.28
22647;BME280;11490;42.726;23.268;2024-01-15T10:32:29;94222.97;;;5.04;71.08
22647;BME280;11490;42.726;23.268;2024-01-15T10:34:55;94222.63;;;5.82;72.91
22647;BME280;11490;42.726;23.268;2024-01-15T10:37:20;94221.97;;;6.27;70.14
22647;BME280;11490;42.726;23.268;2024-01-15T10:39:49;94212.09;;;6.34;69.75
22647;BME280;11490;42.726;23.268;2024-01-15T10:42:14;94224.59;;;6.39;69.79
22647;BME280;11490;42.726;23.268;2024-01-15T10:44:41;94231.72;;;5.87;69.05
22647;BME280;11490;42.726;23.268;2024-01-15T10:47:08;94199.97;;;5.87;69.62
22647;BME280;11490;42.726;23.268;2024-01-15T10:49:34;94217.25;;;6.01;68.13
22647;BME280;11490;42.726;23.268;2024-01-15T10:52:01;94209.88;;;6.03;69.40
22647;BME280;11490;42.726;23.268;2024-01-15T10:54:27;94198.28;;;5.92;70.02
22647;BME280;11490;42.726;23.268;2024-01-15T10:56:53;94197.25;;;5.58;69.09
22647;BME280;11490;42.726;23.268;2024-01-15T10:59:20;94197.50;;;5.57;70.17
22647;BME280;11490;42.726;23.268;2024-01-15T11:01:47;94204.63;;;5.10;71.82
22647;BME280;11490;42.726;23.268;2024-01-15T11:04:13;94180.25;;;5.31;69.94
22647;BME280;11490;42.726;23.268;2024-01-15T11:06:46;94179.88;;;5.04;69.10
22647;BME280;11490;42.726;23.268;2024-01-15T11:09:12;94177.94;;;4.99;70.56
22647;BME280;11490;42.726;23.268;2024-01-15T11:11:44;94184.13;;;5.05;69.87
22647;BME280;11490;42.726;23.268;2024-01-15T11:14:10;94168.19;;;4.47;71.26
22647;BME280;11490;42.726;23.268;2024-01-15T11:16:56;94170.69;;;4.83;71.67
22647;BME280;11490;42.726;23.268;2024-01-15T11:19:22;94160.19;;;4.53;72.61
22647;BME280;11490;42.726;23.268;2024-01-15T11:21:47;94176.66;;;4.90;74.79
22647;BME280;11490;42.726;23.268;2024-01-15T11:24:36;94163.41;;;4.67;70.27
22647;BME280;11490;42.726;23.268;2024-01-15T11:27:02;94141.84;;;4.70;71.45
22647;BME280;11490;42.726;23.268;2024-01-15T11:32:09;94160.19;;;4.65;74.11
22647;BME280;11490;42.726;23.268;2024-01-15T11:34:52;94137.31;;;4.47;72.28
22647;BME280;11490;42.726;23.268;2024-01-15T11:37:19;94149.44;;;4.78;72.88
22647;BME280;11490;42.726;23.268;2024-01-15T11:39:45;94151.13;;;4.61;72.20
22647;BME280;11490;42.726;23.268;2024-01-15T11:42:12;94146.16;;;4.53;73.61
22647;BME280;11490;42.726;23.268;2024-01-15T11:44:38;94135.28;;;4.73;71.61
22647;BME280;11490;42.726;23.268;2024-01-15T11:47:06;94133.34;;;4.68;72.50
22647;BME280;11490;42.726;23.268;2024-01-15T11:50:02;94141.84;;;4.70;71.64
22647;BME280;11490;42.726;23.268;2024-01-15T11:52:38;94132.91;;;4.71;72.68
22647;BME280;11490;42.726;23.268;2024-01-15T11:57:47;94117.75;;;4.78;70.79
22647;BME280;11490;42.726;23.268;2024-01-15T12:00:14;94116.81;;;4.84;71.68
22647;BME280;11490;42.726;23.268;2024-01-15T12:02:45;94129.22;;;4.72;72.27
22647;BME280;11490;42.726;23.268;2024-01-15T12:05:12;94145.50;;;4.69;73.58
22647;BME280;11490;42.726;23.268;2024-01-15T12:07:49;94122.78;;;4.68;74.94
22647;BME280;11490;42.726;23.268;2024-01-15T12:10:18;94124.03;;;4.54;74.35
22647;BME280;11490;42.726;23.268;2024-01-15T12:15:17;94101.16;;;4.48;73.80
22647;BME280;11490;42.726;23.268;2024-01-15T12:17:45;94107.84;;;4.62;75.25
22647;BME280;11490;42.726;23.268;2024-01-15T12:20:11;94092.13;;;4.55;75.09
22647;BME280;11490;42.726;23.268;2024-01-15T12:22:38;94098.28;;;4.49;75.62
22647;BME280;11490;42.726;23.268;2024-01-15T12:25:04;94093.69;;;4.33;76.65
22647;BME280;11490;42.726;23.268;2024-01-15T12:27:29;94095.19;;;4.41;76.83
22647;BME280;11490;42.726;23.268;2024-01-15T12:29:55;94076.84;;;4.46;75.68
22647;BME280;11490;42.726;23.268;2024-01-15T12:32:20;94074.09;;;4.41;77.62
22647;BME280;11490;42.726;23.268;2024-01-15T12:34:49;94076.94;;;4.51;78.48
22647;BME280;11490;42.726;23.268;2024-01-15T12:37:14;94075.81;;;4.58;77.34
22647;BME280;11490;42.726;23.268;2024-01-15T12:39:44;94069.38;;;4.54;77.47
22647;BME280;11490;42.726;23.268;2024-01-15T12:42:10;94070.41;;;4.65;76.11
22647;BME280;11490;42.726;23.268;2024-01-15T12:44:36;94077.09;;;4.56;77.15
22647;BME280;11490;42.726;23.268;2024-01-15T12:47:04;94061.53;;;4.36;74.00
22647;BME280;11490;42.726;23.268;2024-01-15T12:49:30;94064.31;;;4.53;75.69